Terminal Aerodrome Forecast
Issued by NWS

Home | Current Version | Previous Version | Text Only | Print | Product List | Glossary On
Versions: 1 2 3 4 5 6 7 8 9 10 11 12 13 14 15 16 17 18 19
000
FTAK31 PANC 301738
TAFADQ
TAF
PADQ 301738Z 3018/0118 03025G35KT 4SM -RA BKN015 OVC022
      TEMPO 3018/3022 2SM -RA BR BKN007
     FM302300 09011KT P6SM -SHRA BKN018 OVC025
     FM010900 05008KT 6SM -RA BR OVC015=

USA.gov is the U.S. government's official web portal to all federal, state and local government web resources and services.